Time;durP1;ratioP1;P1;durP2;ratioP2;P2;SDS_P1;SDS_P2;PMS_P1;PMS_P2;Temp;Humidity;BMP_temperature;BMP_pressure;BME280_temperature;BME280_humidity;BME280_pressure;Samples;Min_cycle;Max_cycle;Signal;HPM_P1;HPM_P2
2022/01/02 00:01:18;;;;;;;13.45;7.28;;;-0.40;99.90;;;;;;5033695;28;20029;-71
2022/01/02 00:03:47;;;;;;;17.10;8.45;;;-0.50;99.90;;;;;;5034064;28;20053;-71
2022/01/02 00:06:14;;;;;;;16.15;8.00;;;-0.60;99.90;;;;;;5034231;28;20033;-71
2022/01/02 00:08:44;;;;;;;13.50;7.88;;;-0.60;99.90;;;;;;5033444;28;20049;-71
2022/01/02 00:11:12;;;;;;;15.68;7.97;;;-0.60;99.90;;;;;;5033580;28;20021;-71
2022/01/02 00:13:45;;;;;;;14.48;8.20;;;-0.60;99.90;;;;;;5033887;28;20063;-71
2022/01/02 00:16:14;;;;;;;17.10;7.97;;;-0.70;99.90;;;;;;5032359;28;20080;-71
2022/01/02 00:18:49;;;;;;;17.77;7.97;;;-0.70;99.90;;;;;;5033853;28;20378;-71
2022/01/02 00:21:17;;;;;;;19.02;9.13;;;-0.80;99.90;;;;;;5033685;28;20095;-71
2022/01/02 00:24:00;;;;;;;15.73;7.68;;;-0.80;99.90;;;;;;5031968;28;20103;-71
2022/01/02 00:26:36;;;;;;;14.25;7.68;;;-0.80;99.90;;;;;;5033562;28;20031;-71
2022/01/02 00:29:05;;;;;;;15.32;7.78;;;-0.70;99.90;;;;;;5033730;28;20026;-71
2022/01/02 00:31:31;;;;;;;16.35;8.05;;;-0.70;99.90;;;;;;5033307;28;20022;-71
2022/01/02 00:33:57;;;;;;;14.00;6.88;;;-0.70;99.90;;;;;;5033342;28;20025;-71
2022/01/02 00:36:23;;;;;;;12.25;6.05;;;-0.80;99.90;;;;;;5033623;28;20022;-71
2022/01/02 00:38:48;;;;;;;11.60;5.82;;;-0.80;99.90;;;;;;5032999;28;20385;-71
2022/01/02 00:41:30;;;;;;;12.45;7.07;;;-0.80;99.90;;;;;;5034017;28;20033;-71
2022/01/02 00:44:22;;;;;;;16.05;7.95;;;-0.70;99.90;;;;;;5033235;28;20409;-71
2022/01/02 00:46:52;;;;;;;16.35;7.43;;;-0.70;99.90;;;;;;5033560;28;20022;-71
2022/01/02 00:49:24;;;;;;;13.15;7.05;;;-0.70;99.90;;;;;;5033267;28;20076;-70
2022/01/02 00:51:58;;;;;;;13.10;6.85;;;-0.70;99.90;;;;;;5033175;28;20063;-70
2022/01/02 00:54:27;;;;;;;10.82;5.88;;;-0.70;99.90;;;;;;5033246;28;20021;-70
2022/01/02 00:57:01;;;;;;;11.40;5.18;;;-0.70;99.90;;;;;;5033270;28;20021;-70
2022/01/02 00:59:28;;;;;;;9.95;4.57;;;-0.70;99.90;;;;;;5033130;28;20017;-70
2022/01/02 01:02:03;;;;;;;10.82;5.28;;;-0.70;99.90;;;;;;5032856;28;20061;-70
2022/01/02 01:04:33;;;;;;;9.40;4.80;;;-0.70;99.90;;;;;;5032987;28;20057;-70
2022/01/02 01:07:04;;;;;;;6.72;2.95;;;-0.70;99.90;;;;;;5033879;28;20022;-70
2022/01/02 01:09:31;;;;;;;11.73;4.73;;;-0.80;99.90;;;;;;5036805;28;20030;-70
2022/01/02 01:12:02;;;;;;;9.15;4.05;;;-0.90;99.90;;;;;;5036897;28;20025;-70
2022/01/02 01:14:29;;;;;;;7.28;4.13;;;-0.90;99.90;;;;;;5037146;28;20025;-70
2022/01/02 01:16:55;;;;;;;10.68;4.70;;;-0.90;99.90;;;;;;5036803;28;20021;-71
2022/01/02 01:19:22;;;;;;;8.70;4.68;;;-0.90;99.90;;;;;;5036745;28;20076;-70
2022/01/02 01:21:49;;;;;;;9.32;4.72;;;-0.90;99.90;;;;;;5037193;28;20412;-70
2022/01/02 01:24:14;;;;;;;9.10;4.72;;;-0.90;99.90;;;;;;5036396;28;20096;-70
2022/01/02 01:26:40;;;;;;;11.35;4.93;;;-1.00;99.90;;;;;;5036771;28;20100;-70
2022/01/02 01:29:07;;;;;;;11.90;4.97;;;-1.00;99.90;;;;;;5036620;28;20021;-70
2022/01/02 01:31:32;;;;;;;9.35;4.85;;;-1.00;99.90;;;;;;5036467;28;20025;-70
2022/01/02 01:33:58;;;;;;;9.88;4.70;;;-1.00;99.90;;;;;;5035254;28;20072;-70
2022/01/02 01:36:24;;;;;;;8.55;4.38;;;-1.10;99.90;;;;;;5036729;28;20072;-70
2022/01/02 01:38:49;;;;;;;10.65;5.53;;;-1.10;99.90;;;;;;5034848;28;20025;-71
2022/01/02 01:41:30;;;;;;;15.80;5.95;;;-1.20;99.90;;;;;;5036711;28;20030;-70
2022/01/02 01:44:10;;;;;;;12.65;5.30;;;-1.30;99.90;;;;;;5036639;28;20018;-70
2022/01/02 01:46:37;;;;;;;10.65;4.68;;;-1.30;99.90;;;;;;5036545;28;20374;-70
2022/01/02 01:49:14;;;;;;;8.77;4.80;;;-1.30;99.90;;;;;;5036210;28;20021;-70
2022/01/02 01:51:40;;;;;;;9.85;5.20;;;-1.20;99.90;;;;;;5036195;28;20033;-71
2022/01/02 01:54:06;;;;;;;10.02;5.03;;;-1.20;99.90;;;;;;5036144;28;20033;-70
2022/01/02 01:56:32;;;;;;;10.13;5.20;;;-1.10;99.90;;;;;;5034840;28;20125;-70
2022/01/02 01:58:57;;;;;;;9.60;4.70;;;-1.10;99.90;;;;;;5036041;28;20029;-71
2022/01/02 02:01:23;;;;;;;9.55;5.15;;;-1.10;99.90;;;;;;5036221;28;20036;-70
2022/01/02 02:03:49;;;;;;;8.52;4.72;;;-1.10;99.90;;;;;;5035931;28;20112;-70
2022/01/02 02:06:14;;;;;;;9.10;5.00;;;-1.10;99.90;;;;;;5036086;28;20086;-70
2022/01/02 02:08:40;;;;;;;9.05;4.55;;;-1.10;99.90;;;;;;5034529;28;20029;-70
2022/01/02 02:11:06;;;;;;;8.63;5.07;;;-1.10;99.90;;;;;;5035723;28;20022;-70
2022/01/02 02:13:33;;;;;;;6.10;3.30;;;-1.10;99.90;;;;;;5035788;28;20194;-70
2022/01/02 02:16:00;;;;;;;4.85;2.92;;;-1.10;99.90;;;;;;5034481;28;20032;-70
2022/01/02 02:18:26;;;;;;;6.95;3.10;;;-1.10;99.90;;;;;;5035117;28;20036;-70
2022/01/02 02:20:51;;;;;;;5.43;2.50;;;-1.10;99.90;;;;;;5035733;28;20025;-70
2022/01/02 02:23:17;;;;;;;6.30;2.50;;;-1.10;99.90;;;;;;5035567;28;20025;-71
2022/01/02 02:25:43;;;;;;;3.38;1.98;;;-1.10;99.90;;;;;;5033936;28;20029;-70
2022/01/02 02:28:16;;;;;;;5.45;2.40;;;-1.10;99.90;;;;;;5035442;28;20550;-71
2022/01/02 02:30:45;;;;;;;4.50;2.45;;;-1.00;99.90;;;;;;5035606;28;20462;-70
2022/01/02 02:33:12;;;;;;;4.72;2.40;;;-1.00;99.90;;;;;;5035454;28;20045;-71
2022/01/02 02:35:40;;;;;;;6.47;3.00;;;-1.10;99.90;;;;;;5035621;28;20048;-70
2022/01/02 02:38:08;;;;;;;6.30;3.00;;;-1.10;99.90;;;;;;5035325;28;20029;-70
2022/01/02 02:40:35;;;;;;;7.40;3.53;;;-1.10;99.90;;;;;;5034962;28;20026;-70
2022/01/02 02:43:12;;;;;;;7.38;3.60;;;-1.10;99.90;;;;;;5035579;28;20023;-71
2022/01/02 02:51:11;;;;;;;5.78;3.13;;;-1.10;99.90;;;;;;5035453;28;20109;-70
2022/01/02 02:53:40;;;;;;;6.22;3.25;;;-1.20;99.90;;;;;;5035030;28;20053;-70
2022/01/02 02:56:16;;;;;;;6.47;3.13;;;-1.20;99.90;;;;;;5035268;28;20097;-70
2022/01/02 02:58:44;;;;;;;6.68;3.83;;;-1.20;99.90;;;;;;5035236;28;20108;-70
2022/01/02 03:01:12;;;;;;;6.00;3.13;;;-1.20;99.90;;;;;;5034683;28;20108;-71
2022/01/02 03:03:38;;;;;;;5.05;2.95;;;-1.20;99.90;;;;;;5035119;28;20030;-70
2022/01/02 03:06:04;;;;;;;6.38;3.60;;;-1.20;99.90;;;;;;5035268;28;20029;-70
2022/01/02 03:08:31;;;;;;;5.65;3.35;;;-1.20;99.90;;;;;;5034961;28;20033;-70
2022/01/02 03:10:57;;;;;;;6.38;3.33;;;-1.20;99.90;;;;;;5033135;28;20049;-70
2022/01/02 03:13:22;;;;;;;5.85;3.15;;;-1.20;99.90;;;;;;5034631;28;20060;-70
2022/01/02 03:15:48;;;;;;;5.57;3.50;;;-1.20;99.90;;;;;;5034620;28;20436;-71
2022/01/02 03:18:14;;;;;;;7.18;3.50;;;-1.20;99.90;;;;;;5034541;28;20041;-70
2022/01/02 03:20:39;;;;;;;6.85;4.20;;;-1.20;99.90;;;;;;5034423;28;20026;-70
2022/01/02 03:23:05;;;;;;;7.72;4.55;;;-1.20;99.90;;;;;;5034424;28;20104;-70
2022/01/02 03:25:30;;;;;;;8.15;4.97;;;-1.20;99.90;;;;;;5034028;28;20056;-70
2022/01/02 03:27:56;;;;;;;10.77;6.03;;;-1.20;99.90;;;;;;5034328;28;20029;-70
2022/01/02 03:30:22;;;;;;;11.68;5.85;;;-1.20;99.90;;;;;;5033441;28;20029;-71
2022/01/02 03:32:47;;;;;;;8.93;5.32;;;-1.20;99.90;;;;;;5034173;28;20028;-70
2022/01/02 03:35:13;;;;;;;10.27;4.18;;;-1.20;99.90;;;;;;5034451;28;20022;-71
2022/01/02 03:37:39;;;;;;;7.43;4.00;;;-1.20;99.90;;;;;;5034499;28;20428;-71
2022/01/02 03:40:07;;;;;;;9.48;4.63;;;-1.20;99.90;;;;;;5033988;28;20100;-71
2022/01/02 03:42:34;;;;;;;9.10;4.40;;;-1.20;99.90;;;;;;5034083;28;20064;-71
2022/01/02 03:45:00;;;;;;;10.07;5.30;;;-1.20;99.90;;;;;;5032794;28;20401;-71
2022/01/02 03:47:26;;;;;;;8.38;5.20;;;-1.20;99.90;;;;;;5034374;28;20028;-71
2022/01/02 03:49:52;;;;;;;10.45;4.78;;;-1.20;99.90;;;;;;5033988;28;20041;-71
2022/01/02 03:52:18;;;;;;;6.47;3.55;;;-1.20;99.90;;;;;;5032709;28;20461;-71
2022/01/02 03:54:44;;;;;;;5.50;2.90;;;-1.20;99.90;;;;;;5033831;28;20497;-70
2022/01/02 03:57:10;;;;;;;6.25;3.13;;;-1.20;99.90;;;;;;5033974;28;20129;-71
2022/01/02 03:59:36;;;;;;;6.65;3.00;;;-1.20;99.90;;;;;;5033570;28;20029;-71
2022/01/02 04:02:01;;;;;;;5.20;2.78;;;-1.30;99.90;;;;;;5057590;23;20389;-76
2022/01/02 04:04:28;;;;;;;5.25;2.90;;;-1.30;99.90;;;;;;5053830;28;20017;-76
2022/01/02 04:06:55;;;;;;;5.43;2.92;;;-1.40;99.90;;;;;;5053930;28;20033;-76
2022/01/02 04:09:21;;;;;;;5.57;2.97;;;-1.40;99.90;;;;;;5040174;28;20108;-76
2022/01/02 04:11:47;;;;;;;5.68;2.90;;;-1.40;99.90;;;;;;5033941;28;20025;-76
2022/01/02 04:14:13;;;;;;;6.20;2.90;;;-1.40;99.90;;;;;;5032240;28;20021;-76
2022/01/02 04:16:39;;;;;;;5.25;2.70;;;-1.40;99.90;;;;;;5036545;28;20039;-77
2022/01/02 04:19:04;;;;;;;5.25;3.50;;;-1.40;99.90;;;;;;5034397;28;20021;-77
2022/01/02 04:21:30;;;;;;;6.07;2.65;;;-1.40;99.90;;;;;;5034224;28;20033;-77
2022/01/02 04:23:56;;;;;;;4.07;2.30;;;-1.40;99.90;;;;;;5034412;28;20460;-77
2022/01/02 04:26:21;;;;;;;4.63;2.90;;;-1.40;99.90;;;;;;5035860;28;20036;-77
2022/01/02 04:28:48;;;;;;;6.65;2.80;;;-1.40;99.90;;;;;;5052824;28;20029;-77
2022/01/02 04:31:14;;;;;;;5.03;2.80;;;-1.40;99.90;;;;;;5054125;28;20021;-77
2022/01/02 04:33:39;;;;;;;5.68;2.67;;;-1.40;99.90;;;;;;5052213;28;20033;-77
2022/01/02 04:36:05;;;;;;;4.47;2.63;;;-1.40;99.90;;;;;;5054118;28;20064;-77
2022/01/02 04:38:31;;;;;;;4.95;2.88;;;-1.40;99.90;;;;;;5053829;28;20111;-77
2022/01/02 04:40:57;;;;;;;9.02;3.03;;;-1.40;99.90;;;;;;5053463;28;20107;-77
2022/01/02 04:43:23;;;;;;;6.05;2.80;;;-1.40;99.90;;;;;;5057452;28;20028;-77
2022/01/02 04:45:48;;;;;;;4.57;2.55;;;-1.40;99.90;;;;;;5058538;28;20028;-77
2022/01/02 04:48:14;;;;;;;5.18;2.53;;;-1.40;99.90;;;;;;5054042;28;20508;-77
2022/01/02 04:50:40;;;;;;;5.22;3.22;;;-1.50;99.90;;;;;;5037811;28;20061;-77
2022/01/02 04:53:06;;;;;;;4.95;2.72;;;-1.50;99.90;;;;;;5037892;28;20018;-77
2022/01/02 04:55:32;;;;;;;5.55;2.90;;;-1.50;99.90;;;;;;5037898;28;20112;-77
2022/01/02 04:57:58;;;;;;;7.80;3.42;;;-1.50;99.90;;;;;;5052949;28;20021;-77
2022/01/02 05:00:23;;;;;;;6.75;3.20;;;-1.50;99.90;;;;;;5057498;28;20484;-77
2022/01/02 05:02:49;;;;;;;5.35;2.88;;;-1.50;99.90;;;;;;5044579;28;20033;-77
2022/01/02 05:05:16;;;;;;;4.85;2.72;;;-1.60;99.90;;;;;;5037417;28;20477;-77
2022/01/02 05:07:42;;;;;;;5.70;2.53;;;-1.60;99.90;;;;;;5036439;28;20473;-78
2022/01/02 05:10:08;;;;;;;5.13;2.78;;;-1.60;99.90;;;;;;5037247;28;20076;-77
2022/01/02 05:12:34;;;;;;;6.05;2.92;;;-1.60;99.90;;;;;;5037385;28;20053;-77
2022/01/02 05:15:00;;;;;;;6.07;3.30;;;-1.60;99.90;;;;;;5037899;28;20040;-77
2022/01/02 05:17:26;;;;;;;5.88;2.72;;;-1.70;99.90;;;;;;5037683;28;20112;-77
2022/01/02 05:19:52;;;;;;;8.50;3.50;;;-1.70;99.90;;;;;;5037507;28;20113;-77
2022/01/02 05:22:18;;;;;;;4.93;2.85;;;-1.70;99.90;;;;;;5037613;28;20033;-77
2022/01/02 05:24:43;;;;;;;5.38;2.67;;;-1.70;99.90;;;;;;5037628;28;20436;-77
2022/01/02 05:27:09;;;;;;;5.25;2.20;;;-1.70;99.90;;;;;;5046667;28;20025;-77
2022/01/02 05:29:35;;;;;;;4.97;2.33;;;-1.80;99.90;;;;;;5056473;28;20021;-77
2022/01/02 05:32:00;;;;;;;6.40;3.35;;;-1.80;99.90;;;;;;5057454;28;20025;-77
2022/01/02 05:34:26;;;;;;;4.57;2.58;;;-1.90;99.90;;;;;;5057554;28;20079;-77
2022/01/02 05:36:52;;;;;;;5.38;3.30;;;-1.90;99.90;;;;;;5057533;28;20032;-77
2022/01/02 05:39:22;;;;;;;6.15;3.33;;;-1.80;99.90;;;;;;5057756;28;20048;-77
2022/01/02 05:41:49;;;;;;;5.70;3.33;;;-1.80;99.90;;;;;;5056313;28;20021;-77
2022/01/02 05:44:16;;;;;;;5.90;3.30;;;-1.80;99.90;;;;;;5055952;28;20021;-77
2022/01/02 05:46:42;;;;;;;5.53;2.70;;;-1.80;99.90;;;;;;5056218;28;20036;-77
2022/01/02 05:49:11;;;;;;;7.35;2.90;;;-1.80;99.90;;;;;;5047729;28;20033;-77
2022/01/02 05:51:37;;;;;;;8.77;4.78;;;-1.80;99.90;;;;;;5043555;28;20096;-77
2022/01/02 05:54:03;;;;;;;7.10;4.60;;;-1.90;99.90;;;;;;5056122;28;20044;-77
2022/01/02 05:56:29;;;;;;;8.38;4.53;;;-2.00;99.90;;;;;;5055993;28;20492;-77
2022/01/02 05:58:55;;;;;;;9.30;5.88;;;-2.00;99.90;;;;;;5057201;28;20026;-77
2022/01/02 06:01:21;;;;;;;12.05;7.15;;;-2.00;99.90;;;;;;5057049;28;20504;-77
2022/01/02 06:03:47;;;;;;;10.38;5.88;;;-2.00;99.90;;;;;;5056873;28;20032;-77
2022/01/02 06:06:12;;;;;;;8.30;4.95;;;-2.00;99.90;;;;;;5037649;28;20098;-77
2022/01/02 06:08:38;;;;;;;7.38;3.85;;;-2.00;99.90;;;;;;5036362;28;20032;-77
2022/01/02 06:11:04;;;;;;;6.13;3.20;;;-1.90;99.90;;;;;;5036869;28;20033;-77
2022/01/02 06:13:30;;;;;;;6.82;3.28;;;-1.90;99.90;;;;;;5035538;28;20048;-77
2022/01/02 06:15:56;;;;;;;6.90;4.18;;;-1.90;99.90;;;;;;5035411;28;20028;-76
2022/01/02 06:18:21;;;;;;;6.82;4.40;;;-1.90;99.90;;;;;;5036451;28;20036;-77
2022/01/02 06:20:47;;;;;;;9.68;4.70;;;-1.90;99.90;;;;;;5037511;28;20061;-77
2022/01/02 06:23:13;;;;;;;7.47;4.40;;;-2.00;99.90;;;;;;5036535;28;20077;-77
2022/01/02 06:25:39;;;;;;;6.32;3.53;;;-2.10;99.90;;;;;;5036313;28;20025;-76
2022/01/02 06:28:05;;;;;;;8.27;3.97;;;-2.20;99.90;;;;;;5052260;28;20473;-77
2022/01/02 06:30:30;;;;;;;11.85;6.28;;;-2.20;99.90;;;;;;5055950;28;20064;-77
2022/01/02 06:32:56;;;;;;;21.10;10.27;;;-2.30;99.90;;;;;;5056174;28;20021;-77
2022/01/02 06:35:24;;;;;;;18.10;8.77;;;-2.20;99.90;;;;;;5056006;28;20032;-77
2022/01/02 06:37:50;;;;;;;14.40;7.40;;;-2.20;99.90;;;;;;5054323;28;20473;-77
2022/01/02 06:40:15;;;;;;;27.10;12.30;;;-2.20;99.90;;;;;;5055562;28;20115;-77
2022/01/02 06:42:41;;;;;;;14.27;6.82;;;-2.10;99.90;;;;;;5054668;28;20503;-77
2022/01/02 06:45:07;;;;;;;10.85;5.82;;;-2.10;99.90;;;;;;5056044;28;20074;-77
2022/01/02 06:47:33;;;;;;;8.43;4.60;;;-2.20;99.90;;;;;;5055816;28;20025;-76
2022/01/02 06:49:58;;;;;;;7.45;3.28;;;-2.20;99.90;;;;;;5054612;28;20036;-77
2022/01/02 06:52:24;;;;;;;7.90;3.42;;;-2.30;99.90;;;;;;5055655;28;20017;-77
2022/01/02 06:54:53;;;;;;;4.88;2.85;;;-2.30;99.90;;;;;;5040831;28;20108;-76
2022/01/02 06:57:20;;;;;;;6.03;3.05;;;-2.30;99.90;;;;;;5045681;28;20021;-77
2022/01/02 06:59:46;;;;;;;6.22;2.97;;;-2.30;99.90;;;;;;5055360;28;20025;-77
2022/01/02 07:02:12;;;;;;;5.80;3.13;;;-2.30;99.90;;;;;;5055418;28;20056;-77
2022/01/02 07:04:38;;;;;;;6.20;2.95;;;-2.30;99.90;;;;;;5055315;28;20028;-77
2022/01/02 07:07:04;;;;;;;5.80;3.13;;;-2.30;99.90;;;;;;5056228;28;20032;-77
2022/01/02 07:09:31;;;;;;;8.55;3.35;;;-2.30;99.90;;;;;;5050132;28;20029;-77
2022/01/02 07:11:58;;;;;;;8.40;3.55;;;-2.30;99.90;;;;;;5034232;28;20025;-77
2022/01/02 07:14:27;;;;;;;6.60;3.60;;;-2.20;99.90;;;;;;5035467;28;20108;-77
2022/01/02 07:16:57;;;;;;;12.50;5.75;;;-2.20;99.90;;;;;;5035180;28;20100;-77
2022/01/02 07:19:23;;;;;;;5.75;3.80;;;-2.20;99.90;;;;;;5035232;28;20092;-77
2022/01/02 07:21:50;;;;;;;8.60;5.10;;;-2.10;99.90;;;;;;5035267;28;20083;-77
2022/01/02 07:24:16;;;;;;;8.50;4.70;;;-2.10;99.90;;;;;;5035290;28;20017;-77
2022/01/02 07:26:42;;;;;;;8.90;5.00;;;-2.10;99.90;;;;;;5047476;28;20499;-77
2022/01/02 07:29:07;;;;;;;12.15;4.78;;;-2.00;99.90;;;;;;5055223;28;20032;-77
2022/01/02 07:31:33;;;;;;;8.35;3.95;;;-2.00;99.90;;;;;;5055087;28;20523;-77
2022/01/02 07:33:59;;;;;;;7.75;4.10;;;-2.00;99.90;;;;;;5055236;28;20368;-77
2022/01/02 07:36:24;;;;;;;8.50;4.47;;;-2.00;99.90;;;;;;5055316;28;20063;-77
2022/01/02 07:38:50;;;;;;;7.53;4.50;;;-1.90;99.90;;;;;;5055044;28;20073;-77
2022/01/02 07:41:16;;;;;;;7.40;4.20;;;-1.90;99.90;;;;;;5054999;28;20032;-77
2022/01/02 07:43:42;;;;;;;7.78;4.65;;;-1.90;99.90;;;;;;5035228;28;20029;-77
2022/01/02 07:46:07;;;;;;;6.88;3.70;;;-1.90;99.90;;;;;;5035372;28;20032;-77
2022/01/02 07:48:33;;;;;;;9.13;4.53;;;-1.90;99.90;;;;;;5035627;28;20091;-77
2022/01/02 07:50:59;;;;;;;6.43;3.50;;;-1.90;99.90;;;;;;5034886;28;20032;-77
2022/01/02 07:53:25;;;;;;;6.45;3.25;;;-1.90;99.90;;;;;;5034368;28;20477;-77
2022/01/02 07:55:51;;;;;;;6.03;3.33;;;-1.90;99.90;;;;;;5034383;28;20029;-77
2022/01/02 07:58:16;;;;;;;8.15;4.90;;;-1.90;99.90;;;;;;5051065;28;20025;-77
2022/01/02 08:00:43;;;;;;;9.98;5.40;;;-1.90;99.90;;;;;;5054728;28;20033;-77
2022/01/02 08:03:09;;;;;;;11.38;5.57;;;-1.90;99.90;;;;;;5054392;28;20094;-78
2022/01/02 08:05:34;;;;;;;8.63;4.88;;;-1.90;99.90;;;;;;5054524;28;20484;-77
2022/01/02 08:08:00;;;;;;;9.93;5.03;;;-2.00;99.90;;;;;;5053071;28;20040;-77
2022/01/02 08:10:27;;;;;;;8.55;4.68;;;-2.00;99.90;;;;;;5054158;28;20028;-78
2022/01/02 08:12:53;;;;;;;7.65;4.30;;;-2.00;99.90;;;;;;5054447;28;20060;-77
2022/01/02 08:15:20;;;;;;;8.25;4.00;;;-1.90;99.90;;;;;;5041870;28;20059;-77
2022/01/02 08:17:46;;;;;;;8.05;4.35;;;-1.90;99.90;;;;;;5033856;28;20029;-77
2022/01/02 08:20:12;;;;;;;13.02;5.78;;;-1.90;99.90;;;;;;5034482;28;20072;-77
2022/01/02 08:22:38;;;;;;;11.73;6.22;;;-1.80;99.90;;;;;;5034844;28;20026;-77
2022/01/02 08:25:05;;;;;;;14.45;6.50;;;-1.80;99.90;;;;;;5036228;28;20067;-77
2022/01/02 08:27:31;;;;;;;12.55;6.13;;;-1.70;99.90;;;;;;5045804;28;20033;-77
2022/01/02 08:29:56;;;;;;;10.60;5.65;;;-1.70;99.90;;;;;;5053176;28;20374;-77
2022/01/02 08:32:22;;;;;;;10.50;5.75;;;-1.70;99.90;;;;;;5052627;28;20083;-77
2022/01/02 08:34:48;;;;;;;9.60;5.03;;;-1.70;99.90;;;;;;5053906;28;20037;-78
2022/01/02 08:37:15;;;;;;;16.15;11.55;;;-1.70;99.90;;;;;;5054600;28;20032;-78
2022/01/02 08:39:44;;;;;;;12.73;9.55;;;-1.60;99.90;;;;;;5053942;28;20480;-77
2022/01/02 08:42:12;;;;;;;12.05;6.00;;;-1.60;99.90;;;;;;5053935;28;20086;-77
2022/01/02 08:44:39;;;;;;;11.52;5.45;;;-1.50;99.90;;;;;;5053703;28;20029;-77
2022/01/02 08:47:06;;;;;;;10.88;5.90;;;-1.50;99.90;;;;;;5052110;28;20067;-77
2022/01/02 08:49:32;;;;;;;11.38;6.95;;;-1.40;99.90;;;;;;5052650;28;20021;-77
2022/01/02 08:51:58;;;;;;;82.85;37.17;;;-1.40;99.90;;;;;;5052799;28;20017;-77
2022/01/02 08:54:24;;;;;;;70.53;30.85;;;-1.30;99.90;;;;;;5054009;28;20017;-77
2022/01/02 08:56:50;;;;;;;65.90;27.58;;;-1.30;99.90;;;;;;5053670;28;20029;-77
2022/01/02 08:59:15;;;;;;;17.60;8.55;;;-1.20;99.90;;;;;;5053993;28;20510;-77
2022/01/02 09:01:41;;;;;;;12.32;6.20;;;-1.10;99.90;;;;;;5053698;28;20032;-77
2022/01/02 09:04:07;;;;;;;16.17;8.15;;;-1.10;99.90;;;;;;5051959;28;20553;-78
2022/01/02 09:06:32;;;;;;;13.90;7.95;;;-1.00;99.90;;;;;;5053859;28;20476;-78
2022/01/02 09:08:58;;;;;;;11.90;6.95;;;-1.00;99.90;;;;;;5054106;28;20021;-77
2022/01/02 09:11:24;;;;;;;11.48;6.32;;;-1.00;99.90;;;;;;5052489;28;20358;-78
2022/01/02 09:13:50;;;;;;;13.77;6.68;;;-0.90;99.90;;;;;;5054148;28;20032;-78
2022/01/02 09:16:16;;;;;;;11.23;5.78;;;-0.80;99.90;;;;;;5055540;28;20028;-81
2022/01/02 09:18:42;;;;;;;7.80;4.25;;;-0.80;99.90;;;;;;5055671;28;20052;-81
2022/01/02 09:21:07;;;;;;;10.18;5.15;;;-0.70;99.90;;;;;;5052069;28;20170;-81
2022/01/02 09:23:33;;;;;;;11.45;5.25;;;-0.60;99.90;;;;;;5055189;28;20021;-81
2022/01/02 09:25:59;;;;;;;9.88;4.80;;;-0.50;99.90;;;;;;5055626;28;20040;-81
2022/01/02 09:28:24;;;;;;;6.75;3.60;;;-0.50;99.90;;;;;;5057289;28;20047;-81
2022/01/02 09:30:50;;;;;;;6.80;3.50;;;-0.40;99.90;;;;;;5060017;28;20095;-81
2022/01/02 09:33:16;;;;;;;8.65;4.07;;;-0.30;99.90;;;;;;5059829;28;20032;-81
2022/01/02 09:35:43;;;;;;;6.38;3.80;;;-0.20;99.90;;;;;;5057941;28;20099;-82
2022/01/02 09:38:09;;;;;;;5.78;3.42;;;-0.20;99.90;;;;;;5056560;28;20029;-81
2022/01/02 09:40:35;;;;;;;7.43;3.80;;;0.00;99.90;;;;;;5058250;28;20028;-81
2022/01/02 09:43:02;;;;;;;8.43;3.58;;;0.10;99.90;;;;;;5057130;28;20024;-81
2022/01/02 09:45:29;;;;;;;7.28;4.43;;;0.20;99.90;;;;;;5059236;28;20029;-81
2022/01/02 09:47:55;;;;;;;11.38;6.35;;;0.40;99.90;;;;;;5059136;28;20021;-81
2022/01/02 09:50:21;;;;;;;13.00;6.93;;;0.50;99.90;;;;;;5059660;28;20057;-81
2022/01/02 09:52:48;;;;;;;12.27;7.30;;;0.60;99.90;;;;;;5058135;28;20457;-82
2022/01/02 09:55:14;;;;;;;16.42;8.57;;;0.80;99.90;;;;;;5059175;28;20021;-82
2022/01/02 09:57:48;;;;;;;18.05;10.18;;;0.90;99.90;;;;;;5059384;28;20037;-81
2022/01/02 10:00:15;;;;;;;19.85;11.15;;;0.90;99.90;;;;;;5064893;28;20050;-81
2022/01/02 10:03:07;;;;;;;20.88;11.52;;;1.00;99.90;;;;;;5069288;28;20044;-82
2022/01/02 10:05:54;;;;;;;18.33;11.05;;;1.10;99.90;;;;;;5050544;28;20021;-82
2022/01/02 10:08:25;;;;;;;19.30;9.35;;;1.10;99.90;;;;;;5056954;28;20033;-82
2022/01/02 10:11:25;;;;;;;;;;;1.10;99.90;;;;;;5056397;28;20029;-85
2022/01/02 10:13:56;;;;;;;14.20;7.68;;;1.20;99.90;;;;;;5057315;28;20292;-81
2022/01/02 10:16:21;;;;;;;15.52;7.93;;;1.30;99.90;;;;;;5063961;22;20076;-70
2022/01/02 10:18:49;;;;;;;13.40;7.40;;;1.30;99.90;;;;;;5035689;28;20021;-69
2022/01/02 10:21:39;;;;;;;11.55;7.32;;;1.40;99.90;;;;;;5034440;28;20026;-70
2022/01/02 10:24:21;;;;;;;12.18;7.05;;;1.50;99.90;;;;;;5015924;28;20053;-70
2022/01/02 10:27:07;;;;;;;12.32;7.47;;;1.50;99.90;;;;;;5045551;28;20029;-69
2022/01/02 10:29:50;;;;;;;14.43;9.02;;;1.60;99.90;;;;;;5035882;28;20017;-69
2022/01/02 10:32:33;;;;;;;14.40;8.85;;;1.60;99.90;;;;;;5035730;28;20026;-69
2022/01/02 10:35:18;;;;;;;19.98;9.70;;;1.60;99.90;;;;;;5035650;28;20488;-69
2022/01/02 10:37:57;;;;;;;16.88;10.30;;;1.70;99.90;;;;;;5035461;28;20490;-69
2022/01/02 10:40:26;;;;;;;20.33;11.32;;;1.70;99.90;;;;;;5041989;28;20029;-70
2022/01/02 10:42:53;;;;;;;20.50;12.13;;;1.70;99.90;;;;;;5035250;28;20026;-69
2022/01/02 10:45:37;;;;;;;21.05;11.80;;;1.70;99.90;;;;;;5034899;28;20445;-70
2022/01/02 10:48:06;;;;;;;20.20;11.50;;;1.70;99.90;;;;;;5035210;28;20029;-69
2022/01/02 10:50:32;;;;;;;22.17;11.18;;;1.60;99.90;;;;;;5035317;28;20026;-69
2022/01/02 10:53:15;;;;;;;27.33;12.43;;;1.60;99.90;;;;;;5035488;28;20017;-69
2022/01/02 10:55:44;;;;;;;21.70;10.90;;;1.70;99.90;;;;;;5035080;28;20430;-69
2022/01/02 10:58:11;;;;;;;18.85;10.23;;;1.70;99.90;;;;;;5035084;28;20018;-69
2022/01/02 11:00:37;;;;;;;20.65;12.10;;;1.70;99.90;;;;;;5035504;28;20053;-69
2022/01/02 11:03:06;;;;;;;19.73;11.63;;;1.80;99.90;;;;;;5035009;28;20045;-69
2022/01/02 11:05:34;;;;;;;19.75;11.20;;;1.80;99.90;;;;;;5035096;28;20416;-69
2022/01/02 11:08:02;;;;;;;21.98;11.77;;;1.90;99.90;;;;;;5034804;28;20036;-69
2022/01/02 11:10:28;;;;;;;19.80;10.45;;;1.80;99.90;;;;;;5033885;28;20488;-70
2022/01/02 11:12:55;;;;;;;24.30;11.75;;;1.80;99.90;;;;;;5034567;28;20036;-69
2022/01/02 11:15:23;;;;;;;18.67;10.55;;;1.80;99.90;;;;;;5033845;28;20501;-69
2022/01/02 11:17:50;;;;;;;19.77;10.77;;;1.90;99.90;;;;;;5034631;28;20030;-69
2022/01/02 11:20:24;;;;;;;22.90;11.93;;;1.80;99.90;;;;;;5034523;28;20033;-70
2022/01/02 11:23:21;;;;;;;20.15;10.55;;;1.90;99.90;;;;;;5034288;28;20025;-70
2022/01/02 11:26:03;;;;;;;22.50;11.75;;;1.90;99.90;;;;;;5014783;28;20034;-70
2022/01/02 11:28:35;;;;;;;17.23;10.55;;;2.00;99.90;;;;;;5034373;28;20057;-70
2022/01/02 11:31:02;;;;;;;19.10;11.45;;;2.10;99.90;;;;;;5034363;28;20017;-69
2022/01/02 11:33:35;;;;;;;17.77;10.43;;;2.10;99.90;;;;;;5033985;28;20018;-70
2022/01/02 11:36:23;;;;;;;17.98;10.57;;;2.20;99.90;;;;;;5033684;28;20025;-70
2022/01/02 11:39:04;;;;;;;18.25;10.50;;;2.40;99.90;;;;;;5014528;28;20153;-69
2022/01/02 11:41:36;;;;;;;19.05;11.05;;;2.50;99.90;;;;;;5014212;28;20456;-69
2022/01/02 11:44:02;;;;;;;20.27;10.73;;;2.60;99.90;;;;;;5014437;28;20390;-69
2022/01/02 11:46:30;;;;;;;21.67;11.15;;;2.70;99.90;;;;;;5014363;28;20022;-69
2022/01/02 11:49:04;;;;;;;18.73;10.70;;;2.80;99.90;;;;;;5014401;28;20490;-69
2022/01/02 11:51:58;;;;;;;19.85;11.52;;;2.80;99.90;;;;;;5013744;28;20148;-69
2022/01/02 11:54:30;;;;;;;21.48;11.02;;;2.90;99.90;;;;;;5014293;28;20097;-69
2022/01/02 11:57:04;;;;;;;21.90;11.23;;;3.00;99.90;;;;;;5020591;28;20057;-70
2022/01/02 11:59:38;;;;;;;16.02;10.07;;;3.10;99.90;;;;;;5034250;28;20040;-69
2022/01/02 12:02:30;;;;;;;18.50;10.30;;;3.10;99.90;;;;;;5033861;28;20030;-69
2022/01/02 12:05:14;;;;;;;18.10;10.20;;;3.20;99.90;;;;;;5033892;28;20116;-69
2022/01/02 12:07:50;;;;;;;20.40;11.15;;;3.20;99.90;;;;;;5034087;28;20028;-69
2022/01/02 12:10:15;;;;;;;17.23;10.30;;;3.20;99.90;;;;;;5033934;28;20075;-69
2022/01/02 12:12:59;;;;;;;18.13;10.70;;;3.20;99.90;;;;;;5048725;28;20026;-69
2022/01/02 12:15:45;;;;;;;18.92;10.90;;;3.20;99.90;;;;;;5033761;28;20055;-69
2022/01/02 12:18:13;;;;;;;17.38;10.90;;;3.20;99.90;;;;;;5033481;28;20104;-69
2022/01/02 12:20:56;;;;;;;16.27;10.63;;;3.20;99.90;;;;;;5033484;28;20389;-69
2022/01/02 12:23:34;;;;;;;18.63;10.77;;;3.20;99.90;;;;;;5033817;28;20025;-69
2022/01/02 12:26:13;;;;;;;18.02;10.40;;;3.10;99.90;;;;;;5033622;28;20021;-69
2022/01/02 12:29:00;;;;;;;18.27;9.98;;;3.10;99.90;;;;;;5033763;28;20017;-69
2022/01/02 12:31:29;;;;;;;17.85;10.77;;;3.20;99.90;;;;;;5033662;28;20097;-69
2022/01/02 12:34:01;;;;;;;22.83;11.43;;;3.20;99.90;;;;;;5033375;28;20421;-69
2022/01/02 12:36:27;;;;;;;25.15;11.82;;;3.20;99.90;;;;;;5048590;28;20021;-69
2022/01/02 12:38:58;;;;;;;23.30;11.40;;;3.20;99.90;;;;;;5033354;28;20120;-70
2022/01/02 12:41:25;;;;;;;;;;;3.20;99.90;;;;;;5033480;28;20030;-70
2022/01/02 12:43:57;;;;;;;17.00;9.73;;;3.30;99.90;;;;;;5033631;28;20320;-70
2022/01/02 12:46:40;;;;;;;20.20;9.63;;;3.30;99.90;;;;;;5033170;28;20049;-70
2022/01/02 12:49:23;;;;;;;28.90;12.10;;;3.30;99.90;;;;;;5033505;28;20466;-70
2022/01/02 12:51:51;;;;;;;21.80;11.10;;;3.30;99.90;;;;;;5033268;28;20030;-70
2022/01/02 12:54:29;;;;;;;19.02;11.63;;;3.30;99.90;;;;;;5033776;28;20021;-70
2022/01/02 12:57:08;;;;;;;25.50;13.13;;;3.30;99.90;;;;;;5033059;28;20029;-70